Time;durP1;ratioP1;P1;durP2;ratioP2;P2;SDS_P1;SDS_P2;PMS_P1;PMS_P2;Temp;Humidity;BMP_temperature;BMP_pressure;BME280_temperature;BME280_humidity;BME280_pressure;Samples;Min_cycle;Max_cycle;Signal;HPM_P1;HPM_P2
2022/06/15 00:03:18;;;;;;;3.28;2.08;;;;;;;;;;10396517;28;20017;-77
2022/06/15 00:08:19;;;;;;;15.07;4.70;;;;;;;;;;10379388;28;20568;-74
2022/06/15 00:13:21;;;;;;;5.35;2.50;;;;;;;;;;10396409;28;20116;-75
2022/06/15 00:18:21;;;;;;;3.25;2.10;;;;;;;;;;10411722;28;20021;-76
2022/06/15 00:23:21;;;;;;;6.57;1.83;;;;;;;;;;10397330;28;20025;-73
2022/06/15 00:28:22;;;;;;;3.15;1.77;;;;;;;;;;10397666;28;20114;-73
2022/06/15 00:33:22;;;;;;;3.25;2.10;;;;;;;;;;10379694;28;20021;-75
2022/06/15 00:38:24;;;;;;;5.50;2.40;;;;;;;;;;10410056;28;20105;-71
2022/06/15 00:43:37;;;;;;;5.22;2.30;;;;;;;;;;10397235;28;20098;-73
2022/06/15 00:48:37;;;;;;;3.58;2.17;;;;;;;;;;10396125;28;20052;-72
2022/06/15 00:53:37;;;;;;;2.92;1.90;;;;;;;;;;10379196;28;20033;-73
2022/06/15 00:58:39;;;;;;;3.10;1.65;;;;;;;;;;10399502;28;20017;-72
2022/06/15 01:03:40;;;;;;;4.20;2.08;;;;;;;;;;10404526;28;20037;-76
2022/06/15 01:08:46;;;;;;;3.53;2.03;;;;;;;;;;10402854;28;20052;-80
2022/06/15 01:13:53;;;;;;;9.18;2.08;;;;;;;;;;10387442;28;20625;-70
2022/06/15 01:19:12;;;;;;;4.07;1.65;;;;;;;;;;10388612;28;20029;-74
2022/06/15 01:24:42;;;;;;;3.35;1.80;;;;;;;;;;10401916;28;20101;-72
2022/06/15 01:29:47;;;;;;;2.42;1.63;;;;;;;;;;10347986;28;20038;-71
2022/06/15 01:34:59;;;;;;;4.00;1.95;;;;;;;;;;10370053;28;20058;-71
2022/06/15 01:40:06;;;;;;;11.52;2.15;;;;;;;;;;10400723;28;20108;-73
2022/06/15 01:45:09;;;;;;;2.08;1.63;;;;;;;;;;10404049;28;20532;-78
2022/06/15 01:50:09;;;;;;;3.38;1.83;;;;;;;;;;10385434;28;20022;-74
2022/06/15 01:55:13;;;;;;;4.60;1.95;;;;;;;;;;10384892;28;20021;-74
2022/06/15 02:00:17;;;;;;;6.45;2.03;;;;;;;;;;10403406;28;20180;-73
2022/06/15 02:05:17;;;;;;;4.80;2.63;;;;;;;;;;10400124;28;20060;-74
2022/06/15 02:10:17;;;;;;;4.70;2.15;;;;;;;;;;10384366;28;20104;-74
2022/06/15 02:15:19;;;;;;;4.68;3.15;;;;;;;;;;10385127;28;20072;-72
2022/06/15 02:20:23;;;;;;;3.67;2.00;;;;;;;;;;10383809;28;20018;-74
2022/06/15 02:25:25;;;;;;;4.13;2.38;;;;;;;;;;10384711;28;20009;-74
2022/06/15 02:30:26;;;;;;;2.85;1.60;;;;;;;;;;10383316;28;20073;-74
2022/06/15 02:35:26;;;;;;;6.15;2.08;;;;;;;;;;10382644;28;20112;-78
2022/06/15 02:40:27;;;;;;;4.20;2.00;;;;;;;;;;10383600;28;20013;-74
2022/06/15 02:45:34;;;;;;;4.93;2.10;;;;;;;;;;10383443;28;20027;-75
2022/06/15 02:50:38;;;;;;;5.22;1.80;;;;;;;;;;10400860;28;20458;-77
2022/06/15 02:55:38;;;;;;;3.28;1.77;;;;;;;;;;10400393;28;20573;-71
2022/06/15 03:00:40;;;;;;;2.83;1.47;;;;;;;;;;10382566;28;20021;-77
2022/06/15 03:05:47;;;;;;;3.88;2.05;;;;;;;;;;10385004;28;20268;-73
2022/06/15 03:10:50;;;;;;;6.82;2.25;;;;;;;;;;10400875;28;20029;-76
2022/06/15 03:15:55;;;;;;;2.35;2.15;;;;;;;;;;10397454;28;20069;-71
2022/06/15 03:21:00;;;;;;;5.45;2.00;;;;;;;;;;10381776;28;20025;-79
2022/06/15 03:26:01;;;;;;;2.92;1.90;;;;;;;;;;10383835;28;20021;-75
2022/06/15 03:31:03;;;;;;;6.07;2.33;;;;;;;;;;10415090;28;20030;-78
2022/06/15 03:36:04;;;;;;;5.40;2.15;;;;;;;;;;10385676;28;20067;-76
2022/06/15 03:41:04;;;;;;;8.65;2.53;;;;;;;;;;10381220;28;20103;-74
2022/06/15 03:46:05;;;;;;;4.38;2.72;;;;;;;;;;10379325;28;20175;-73
2022/06/15 03:51:05;;;;;;;3.15;2.15;;;;;;;;;;10396255;28;20040;-76
2022/06/15 03:56:05;;;;;;;6.07;2.13;;;;;;;;;;10385397;28;20021;-74
2022/06/15 04:01:06;;;;;;;4.95;2.38;;;;;;;;;;10416770;28;20025;-72
2022/06/15 04:06:06;;;;;;;6.13;2.38;;;;;;;;;;10384647;28;20419;-74
2022/06/15 04:11:08;;;;;;;4.57;2.70;;;;;;;;;;10384238;28;20038;-72
2022/06/15 04:16:10;;;;;;;6.25;2.88;;;;;;;;;;10384201;28;20219;-71
2022/06/15 04:21:11;;;;;;;11.77;2.63;;;;;;;;;;10384373;28;20107;-75
2022/06/15 04:26:11;;;;;;;13.23;3.03;;;;;;;;;;10384389;28;20108;-78
2022/06/15 04:31:11;;;;;;;12.25;3.22;;;;;;;;;;10398823;28;20038;-73
2022/06/15 04:36:15;;;;;;;6.60;3.43;;;;;;;;;;10402500;28;20042;-74
2022/06/15 04:41:15;;;;;;;9.27;3.63;;;;;;;;;;10384294;28;20155;-80
2022/06/15 04:46:15;;;;;;;10.10;4.40;;;;;;;;;;10380568;28;20558;-73
2022/06/15 04:51:17;;;;;;;6.43;3.53;;;;;;;;;;10401090;28;20064;-73
2022/06/15 04:56:18;;;;;;;9.43;3.40;;;;;;;;;;10398943;28;20025;-74
2022/06/15 05:01:18;;;;;;;10.75;2.97;;;;;;;;;;10420096;28;20029;-73
2022/06/15 05:06:30;;;;;;;7.23;2.80;;;;;;;;;;10430363;28;20041;-74
2022/06/15 05:11:32;;;;;;;11.43;3.55;;;;;;;;;;10406496;28;20069;-74
2022/06/15 05:16:32;;;;;;;9.95;3.53;;;;;;;;;;10425506;28;20527;-76
2022/06/15 05:21:37;;;;;;;10.83;3.80;;;;;;;;;;10444136;28;20183;-75
2022/06/15 05:26:38;;;;;;;4.50;2.35;;;;;;;;;;10424877;28;20024;-75
2022/06/15 05:31:38;;;;;;;10.55;3.40;;;;;;;;;;10442865;28;20419;-72
2022/06/15 05:36:39;;;;;;;12.60;2.58;;;;;;;;;;10423911;28;20029;-74
2022/06/15 05:41:39;;;;;;;15.70;4.83;;;;;;;;;;10442576;28;20082;-73
2022/06/15 05:46:40;;;;;;;7.43;2.35;;;;;;;;;;10428094;28;20268;-74
2022/06/15 05:51:41;;;;;;;9.43;2.67;;;;;;;;;;10431195;28;20031;-72
2022/06/15 05:56:41;;;;;;;10.23;2.07;;;;;;;;;;10430340;28;20479;-74
2022/06/15 06:01:42;;;;;;;7.27;1.90;;;;;;;;;;10430657;28;20272;-73
2022/06/15 06:06:43;;;;;;;6.13;2.20;;;;;;;;;;10430472;28;20025;-72
2022/06/15 06:11:43;;;;;;;6.10;1.75;;;;;;;;;;10430490;28;20021;-73
2022/06/15 06:16:43;;;;;;;4.95;2.58;;;;;;;;;;10430690;28;20072;-73
2022/06/15 06:21:44;;;;;;;4.57;1.45;;;;;;;;;;10430383;28;20146;-76
2022/06/15 06:26:45;;;;;;;9.88;1.83;;;;;;;;;;10429560;28;20032;-74
2022/06/15 06:31:45;;;;;;;5.57;1.65;;;;;;;;;;10429990;28;20528;-73
2022/06/15 06:36:46;;;;;;;7.80;1.50;;;;;;;;;;10446592;28;20085;-75
2022/06/15 06:41:46;;;;;;;2.05;1.40;;;;;;;;;;10428811;28;20024;-73
2022/06/15 06:46:48;;;;;;;10.77;2.27;;;;;;;;;;10429178;28;20091;-74
2022/06/15 06:51:48;;;;;;;6.10;1.50;;;;;;;;;;10429097;28;20120;-74
2022/06/15 06:56:49;;;;;;;7.32;1.45;;;;;;;;;;10428348;28;20033;-72
2022/06/15 07:01:49;;;;;;;8.50;1.77;;;;;;;;;;10429551;28;20017;-73
2022/06/15 07:06:50;;;;;;;7.13;2.20;;;;;;;;;;10428819;28;20017;-74
2022/06/15 07:11:51;;;;;;;6.75;1.83;;;;;;;;;;10411862;28;20427;-72
2022/06/15 07:16:51;;;;;;;3.95;1.35;;;;;;;;;;10428195;28;20586;-71
2022/06/15 07:21:51;;;;;;;12.82;1.65;;;;;;;;;;10445691;28;20521;-76
2022/06/15 07:26:51;;;;;;;4.40;1.45;;;;;;;;;;10445608;28;20013;-75
2022/06/15 07:31:53;;;;;;;9.27;3.30;;;;;;;;;;10427168;28;20028;-73
2022/06/15 07:36:53;;;;;;;6.05;1.80;;;;;;;;;;10426547;28;20033;-73
2022/06/15 07:41:54;;;;;;;2.42;1.20;;;;;;;;;;10445362;28;20024;-72
2022/06/15 07:52:13;;;;;;;8.50;1.38;;;;;;;;;;10445491;28;20017;-73
2022/06/15 07:57:13;;;;;;;2.85;1.40;;;;;;;;;;10426811;28;20021;-72
2022/06/15 08:02:14;;;;;;;2.28;1.10;;;;;;;;;;10425909;28;20021;-72
2022/06/15 08:07:15;;;;;;;14.73;2.72;;;;;;;;;;10444142;28;20560;-74
2022/06/15 08:12:16;;;;;;;4.40;1.40;;;;;;;;;;10426138;28;20064;-73
2022/06/15 08:17:22;;;;;;;5.93;1.52;;;;;;;;;;10444309;28;20025;-74
2022/06/15 08:22:22;;;;;;;5.63;1.13;;;;;;;;;;10426276;28;20027;-73
2022/06/15 08:27:23;;;;;;;7.53;1.17;;;;;;;;;;10425354;28;20409;-73
2022/06/15 08:32:23;;;;;;;5.35;1.30;;;;;;;;;;10425470;28;20039;-73
2022/06/15 08:37:23;;;;;;;4.07;1.55;;;;;;;;;;10426028;28;20453;-73
2022/06/15 08:42:33;;;;;;;4.30;1.53;;;;;;;;;;10425439;28;20025;-75
2022/06/15 08:47:49;;;;;;;11.57;2.08;;;;;;;;;;10425653;28;20024;-72
2022/06/15 08:53:09;;;;;;;8.43;1.53;;;;;;;;;;10425420;28;20048;-74
2022/06/15 08:58:13;;;;;;;9.15;0.85;;;;;;;;;;10428250;28;20043;-72
2022/06/15 09:03:39;;;;;;;6.65;1.20;;;;;;;;;;10442485;28;20021;-75
2022/06/15 09:08:45;;;;;;;8.38;1.23;;;;;;;;;;10425318;28;20036;-73
2022/06/15 09:14:02;;;;;;;1.83;1.10;;;;;;;;;;10425051;28;20179;-73
2022/06/15 09:19:08;;;;;;;2.80;1.02;;;;;;;;;;10444486;28;20104;-76
2022/06/15 09:24:16;;;;;;;3.10;0.80;;;;;;;;;;10450848;28;20056;-74
2022/06/15 09:29:25;;;;;;;3.97;1.70;;;;;;;;;;10432282;28;20021;-74
2022/06/15 09:34:34;;;;;;;8.57;1.30;;;;;;;;;;10432495;28;20032;-72
2022/06/15 09:39:36;;;;;;;5.32;1.38;;;;;;;;;;10414035;28;20032;-73
2022/06/15 09:44:49;;;;;;;4.22;0.70;;;;;;;;;;10432114;28;20029;-75
2022/06/15 09:50:08;;;;;;;3.05;1.17;;;;;;;;;;10449667;28;20029;-71
2022/06/15 09:55:16;;;;;;;2.28;1.33;;;;;;;;;;10431697;28;20021;-73
2022/06/15 10:00:17;;;;;;;4.40;1.60;;;;;;;;;;10449373;28;20024;-74
2022/06/15 10:05:24;;;;;;;5.07;1.27;;;;;;;;;;10431635;28;20536;-73
2022/06/15 10:10:27;;;;;;;5.85;1.45;;;;;;;;;;10430003;28;20021;-73
2022/06/15 10:15:40;;;;;;;6.70;1.15;;;;;;;;;;10431340;28;20523;-72
2022/06/15 10:20:41;;;;;;;3.58;1.02;;;;;;;;;;10423165;28;20560;-73
2022/06/15 10:25:47;;;;;;;3.75;1.13;;;;;;;;;;10471573;28;20078;-73
2022/06/15 10:30:53;;;;;;;5.28;1.05;;;;;;;;;;10450011;28;20035;-75
2022/06/15 10:35:56;;;;;;;2.13;1.20;;;;;;;;;;10429403;28;20037;-72
2022/06/15 10:41:45;;;;;;;5.15;1.15;;;;;;;;;;10429921;28;20021;-74
2022/06/15 10:46:21;;;;;;;3.90;1.42;;;;;;;;;;10446967;28;20528;-72
2022/06/15 10:51:32;;;;;;;4.97;0.98;;;;;;;;;;10446906;28;20405;-76
2022/06/15 11:02:09;;;;;;;2.22;1.00;;;;;;;;;;10447515;28;20415;-72
2022/06/15 11:07:30;;;;;;;5.93;1.35;;;;;;;;;;10427964;28;20025;-72
2022/06/15 11:12:30;;;;;;;3.42;1.17;;;;;;;;;;10428372;28;20048;-73
2022/06/15 11:22:52;;;;;;;11.50;2.47;;;;;;;;;;10446215;28;20076;-72
2022/06/15 11:28:00;;;;;;;3.10;1.75;;;;;;;;;;10444874;28;20041;-73
2022/06/15 11:33:00;;;;;;;8.25;2.10;;;;;;;;;;10427599;28;20017;-78
2022/06/15 11:38:19;;;;;;;4.05;1.65;;;;;;;;;;10426710;28;20103;-76
2022/06/15 11:43:21;;;;;;;3.50;1.70;;;;;;;;;;10426391;28;20548;-74
2022/06/15 11:48:31;;;;;;;4.22;1.75;;;;;;;;;;10444028;28;20036;-74
2022/06/15 11:53:37;;;;;;;3.92;1.55;;;;;;;;;;10427438;28;20100;-76
2022/06/15 11:58:40;;;;;;;6.85;2.00;;;;;;;;;;10426701;28;20119;-75
2022/06/15 12:03:41;;;;;;;1.88;1.55;;;;;;;;;;10425625;28;20029;-73
2022/06/15 12:09:00;;;;;;;2.92;2.10;;;;;;;;;;10420952;28;20048;-74
2022/06/15 12:14:04;;;;;;;4.95;2.10;;;;;;;;;;10444591;28;20045;-72
2022/06/15 12:19:11;;;;;;;3.35;2.03;;;;;;;;;;10419063;28;20688;-72
2022/06/15 12:24:24;;;;;;;5.65;2.13;;;;;;;;;;10421998;28;20123;-73
2022/06/15 12:29:25;;;;;;;3.35;1.90;;;;;;;;;;10419505;28;20036;-73
2022/06/15 12:34:49;;;;;;;3.90;1.70;;;;;;;;;;10440055;28;20056;-72
2022/06/15 12:40:08;;;;;;;4.70;2.05;;;;;;;;;;10422077;28;20059;-70
2022/06/15 12:45:15;;;;;;;3.15;1.90;;;;;;;;;;10425713;28;20479;-75
2022/06/15 12:50:18;;;;;;;7.65;2.28;;;;;;;;;;10418946;28;20714;-74
2022/06/15 12:55:25;;;;;;;5.90;2.20;;;;;;;;;;10441971;28;20120;-73
2022/06/15 13:00:31;;;;;;;6.18;2.20;;;;;;;;;;10443627;28;20033;-73
2022/06/15 13:05:35;;;;;;;4.60;2.20;;;;;;;;;;10426844;28;20029;-74
2022/06/15 13:10:35;;;;;;;9.25;3.00;;;;;;;;;;10436804;28;20471;-74
2022/06/15 13:15:51;;;;;;;3.55;2.58;;;;;;;;;;10426706;28;20041;-75
2022/06/15 13:21:11;;;;;;;5.57;2.47;;;;;;;;;;10425178;28;20122;-74
2022/06/15 13:26:13;;;;;;;3.70;2.05;;;;;;;;;;10437656;28;20025;-75
2022/06/15 13:31:34;;;;;;;5.53;2.42;;;;;;;;;;10438230;28;20021;-72
2022/06/15 13:36:36;;;;;;;3.90;3.03;;;;;;;;;;10425362;28;20029;-79
2022/06/15 13:41:36;;;;;;;4.53;3.30;;;;;;;;;;10414862;28;20025;-74
2022/06/15 13:46:38;;;;;;;4.63;2.80;;;;;;;;;;10457546;28;20017;-73
2022/06/15 13:51:43;;;;;;;4.18;2.70;;;;;;;;;;10440360;28;20090;-74
2022/06/15 13:56:46;;;;;;;11.95;4.88;;;;;;;;;;10440447;28;20120;-73
2022/06/15 14:01:59;;;;;;;4.10;2.67;;;;;;;;;;10424707;28;20078;-74
2022/06/15 14:06:59;;;;;;;4.47;3.05;;;;;;;;;;10441524;28;20505;-73
2022/06/15 14:12:12;;;;;;;7.07;3.47;;;;;;;;;;10423866;28;20021;-74
2022/06/15 14:17:32;;;;;;;4.50;3.00;;;;;;;;;;10430829;28;20047;-73
2022/06/15 14:22:46;;;;;;;4.88;2.72;;;;;;;;;;10378722;28;20163;-75
2022/06/15 14:27:53;;;;;;;5.20;3.38;;;;;;;;;;10453265;28;20025;-78
2022/06/15 14:32:58;;;;;;;4.50;2.90;;;;;;;;;;10426610;28;20502;-72
2022/06/15 14:38:00;;;;;;;8.13;3.00;;;;;;;;;;10423457;28;20021;-74
2022/06/15 14:43:01;;;;;;;3.80;2.53;;;;;;;;;;10423388;28;20024;-73
2022/06/15 14:48:03;;;;;;;4.30;2.90;;;;;;;;;;10421241;28;20025;-71
2022/06/15 14:53:21;;;;;;;5.35;3.50;;;;;;;;;;10422118;28;20085;-76
2022/06/15 14:58:21;;;;;;;5.88;3.50;;;;;;;;;;10443438;28;20031;-73
2022/06/15 15:03:24;;;;;;;4.73;3.23;;;;;;;;;;10442374;28;20130;-73
2022/06/15 15:08:27;;;;;;;7.80;3.80;;;;;;;;;;10405087;28;20098;-74
2022/06/15 15:13:34;;;;;;;12.65;3.60;;;;;;;;;;10421239;28;20045;-75
2022/06/15 15:18:37;;;;;;;9.80;3.97;;;;;;;;;;10420788;28;20025;-70
2022/06/15 15:23:42;;;;;;;4.40;3.25;;;;;;;;;;10423449;28;20032;-73
2022/06/15 15:34:31;;;;;;;4.72;3.35;;;;;;;;;;10412175;28;20025;-72
2022/06/15 15:39:31;;;;;;;5.70;3.35;;;;;;;;;;10424781;28;20012;-73
2022/06/15 15:44:32;;;;;;;5.10;3.40;;;;;;;;;;10421349;28;20025;-77
2022/06/15 15:49:33;;;;;;;7.90;3.45;;;;;;;;;;10441171;28;20009;-72
2022/06/15 15:54:34;;;;;;;5.50;3.60;;;;;;;;;;10422726;28;20052;-74
2022/06/15 15:59:35;;;;;;;6.30;3.33;;;;;;;;;;10422844;28;20100;-74
2022/06/15 16:04:38;;;;;;;5.53;4.05;;;;;;;;;;10421903;28;20036;-73
2022/06/15 16:09:39;;;;;;;5.95;3.92;;;;;;;;;;10439824;28;20028;-73
2022/06/15 16:14:39;;;;;;;4.10;2.90;;;;;;;;;;10440583;28;20057;-72
2022/06/15 16:19:41;;;;;;;10.02;4.15;;;;;;;;;;10428668;28;20121;-76
2022/06/15 16:24:42;;;;;;;7.10;3.65;;;;;;;;;;10424899;28;20529;-71
2022/06/15 16:29:42;;;;;;;7.18;3.67;;;;;;;;;;10406057;28;20060;-74
2022/06/15 16:34:43;;;;;;;9.20;3.75;;;;;;;;;;10421906;28;20028;-76
2022/06/15 16:39:43;;;;;;;6.13;3.97;;;;;;;;;;10432845;28;20036;-76
2022/06/15 16:44:43;;;;;;;6.40;2.73;;;;;;;;;;10422175;28;20021;-72
2022/06/15 16:49:43;;;;;;;6.25;3.47;;;;;;;;;;10421745;28;20275;-77
2022/06/15 16:54:44;;;;;;;5.97;3.90;;;;;;;;;;10414873;28;20024;-77
2022/06/15 16:59:44;;;;;;;8.65;3.47;;;;;;;;;;10428253;28;20070;-78
2022/06/15 17:04:44;;;;;;;8.93;3.22;;;;;;;;;;10420538;28;20035;-75
2022/06/15 17:09:45;;;;;;;4.90;3.37;;;;;;;;;;10437396;28;20422;-72
2022/06/15 17:14:46;;;;;;;7.45;4.22;;;;;;;;;;10429658;28;20423;-73
2022/06/15 17:19:46;;;;;;;7.27;3.20;;;;;;;;;;10428397;28;20036;-76
2022/06/15 17:24:47;;;;;;;7.77;3.40;;;;;;;;;;10417305;28;20396;-75
2022/06/15 17:29:47;;;;;;;10.63;3.92;;;;;;;;;;10418321;28;20025;-73
2022/06/15 17:34:47;;;;;;;4.07;3.20;;;;;;;;;;10414852;28;20025;-73
2022/06/15 17:39:48;;;;;;;6.10;3.47;;;;;;;;;;10425373;28;20495;-75
2022/06/15 17:44:49;;;;;;;9.70;3.83;;;;;;;;;;10420799;28;20025;-71
2022/06/15 17:49:49;;;;;;;7.25;3.70;;;;;;;;;;10421426;28;20040;-72
2022/06/15 17:54:49;;;;;;;14.95;4.45;;;;;;;;;;10426379;28;20020;-76
2022/06/15 17:59:49;;;;;;;9.43;3.40;;;;;;;;;;10431409;28;20565;-73
2022/06/15 18:04:50;;;;;;;7.43;4.00;;;;;;;;;;10428751;28;20099;-72
2022/06/15 18:09:50;;;;;;;7.82;3.92;;;;;;;;;;10440190;28;20174;-73
2022/06/15 18:14:51;;;;;;;6.70;3.95;;;;;;;;;;10439123;28;20043;-76
2022/06/15 18:19:57;;;;;;;11.05;4.32;;;;;;;;;;10425973;28;20080;-78
2022/06/15 18:25:00;;;;;;;9.20;4.32;;;;;;;;;;10415778;28;20625;-77
2022/06/15 18:30:01;;;;;;;7.80;3.80;;;;;;;;;;10412782;28;20017;-73
2022/06/15 18:35:01;;;;;;;7.05;4.13;;;;;;;;;;10440537;28;20142;-73
2022/06/15 18:40:03;;;;;;;7.82;4.15;;;;;;;;;;10414369;28;20036;-72
2022/06/15 18:50:25;;;;;;;6.00;3.80;;;;;;;;;;10430003;28;20107;-72
2022/06/15 18:55:27;;;;;;;6.85;3.97;;;;;;;;;;10430499;28;20009;-74
2022/06/15 19:00:28;;;;;;;6.68;5.07;;;;;;;;;;10423766;28;20425;-72
2022/06/15 19:05:30;;;;;;;10.95;5.95;;;;;;;;;;10415896;28;20927;-72
2022/06/15 19:10:31;;;;;;;8.70;5.32;;;;;;;;;;10418144;28;20052;-74
2022/06/15 19:15:32;;;;;;;10.75;4.38;;;;;;;;;;10408893;28;20104;-74
2022/06/15 19:20:33;;;;;;;7.03;4.20;;;;;;;;;;10427292;28;20557;-72
2022/06/15 19:25:39;;;;;;;7.95;4.80;;;;;;;;;;10422305;28;20033;-73
2022/06/15 19:30:40;;;;;;;8.20;5.63;;;;;;;;;;10409437;28;21172;-74
2022/06/15 19:35:41;;;;;;;10.43;5.80;;;;;;;;;;10418619;28;20564;-76
2022/06/15 19:40:41;;;;;;;9.93;5.50;;;;;;;;;;10423888;28;21741;-72
2022/06/15 19:45:42;;;;;;;7.23;5.20;;;;;;;;;;10412752;28;20121;-75
2022/06/15 19:50:43;;;;;;;10.15;6.05;;;;;;;;;;10410367;28;20657;-73
2022/06/15 19:55:44;;;;;;;10.77;5.53;;;;;;;;;;10413395;28;20119;-74
2022/06/15 20:00:44;;;;;;;10.07;6.15;;;;;;;;;;10422527;28;20024;-72
2022/06/15 20:05:46;;;;;;;10.65;5.47;;;;;;;;;;10421710;28;20033;-72
2022/06/15 20:10:46;;;;;;;8.80;5.47;;;;;;;;;;10422147;28;20027;-72
2022/06/15 20:15:46;;;;;;;11.20;4.97;;;;;;;;;;10420371;28;20055;-73
2022/06/15 20:20:47;;;;;;;7.68;5.43;;;;;;;;;;10421581;28;20272;-74
2022/06/15 20:25:50;;;;;;;8.07;4.85;;;;;;;;;;10421328;28;20037;-72
2022/06/15 20:30:51;;;;;;;10.18;5.88;;;;;;;;;;10439846;28;20027;-73
2022/06/15 20:35:51;;;;;;;10.57;5.43;;;;;;;;;;10404871;28;20044;-77
2022/06/15 20:40:52;;;;;;;10.45;5.38;;;;;;;;;;10421598;28;20025;-73
2022/06/15 20:45:53;;;;;;;11.45;5.35;;;;;;;;;;10419466;28;20037;-75
2022/06/15 20:50:54;;;;;;;9.73;5.32;;;;;;;;;;10421361;28;20021;-76
2022/06/15 21:01:14;;;;;;;7.63;5.03;;;;;;;;;;10444152;28;20115;-77
2022/06/15 21:06:14;;;;;;;11.75;5.40;;;;;;;;;;10422012;28;20028;-72
2022/06/15 21:21:52;;;;;;;16.85;5.85;;;;;;;;;;10444664;28;20013;-76
2022/06/15 21:26:53;;;;;;;6.10;5.00;;;;;;;;;;10428333;28;20025;-75
2022/06/15 21:31:54;;;;;;;6.90;4.47;;;;;;;;;;10447442;28;20031;-74
2022/06/15 21:36:54;;;;;;;12.20;5.00;;;;;;;;;;10428445;28;20031;-73
2022/06/15 21:41:56;;;;;;;6.87;5.07;;;;;;;;;;10426042;28;20820;-72
2022/06/15 21:46:58;;;;;;;8.30;5.97;;;;;;;;;;10427297;28;20279;-74
2022/06/15 21:51:59;;;;;;;8.10;5.38;;;;;;;;;;10428280;28;20579;-74
2022/06/15 21:57:02;;;;;;;12.43;5.28;;;;;;;;;;10429936;28;20036;-71
2022/06/15 22:02:03;;;;;;;11.48;5.47;;;;;;;;;;10427309;28;20028;-73
2022/06/15 22:07:04;;;;;;;11.35;5.55;;;;;;;;;;10438325;28;20525;-78
2022/06/15 22:12:04;;;;;;;15.30;6.00;;;;;;;;;;10409851;28;20029;-73
2022/06/15 22:17:04;;;;;;;13.70;5.75;;;;;;;;;;10439240;28;20029;-73
2022/06/15 22:22:05;;;;;;;7.95;5.22;;;;;;;;;;10425322;28;20178;-74
2022/06/15 22:27:08;;;;;;;16.25;5.38;;;;;;;;;;10429729;28;20035;-72
2022/06/15 22:32:08;;;;;;;8.45;5.10;;;;;;;;;;10426553;28;20345;-72
2022/06/15 22:37:09;;;;;;;9.93;5.07;;;;;;;;;;10427559;28;20028;-73
2022/06/15 22:42:09;;;;;;;7.40;5.03;;;;;;;;;;10423546;28;20035;-69
2022/06/15 22:47:09;;;;;;;7.35;5.30;;;;;;;;;;10424752;28;20024;-76
2022/06/15 22:52:10;;;;;;;16.70;8.07;;;;;;;;;;10424219;28;20199;-72
2022/06/15 22:57:10;;;;;;;8.50;5.00;;;;;;;;;;10425106;28;20615;-74
2022/06/15 23:02:11;;;;;;;11.07;5.82;;;;;;;;;;10424580;28;20150;-73
2022/06/15 23:07:11;;;;;;;7.05;5.43;;;;;;;;;;10424691;28;20017;-78
2022/06/15 23:12:11;;;;;;;5.50;4.17;;;;;;;;;;10424215;28;20491;-80
2022/06/15 23:17:12;;;;;;;12.15;5.32;;;;;;;;;;10423966;28;20021;-72
2022/06/15 23:22:12;;;;;;;11.02;5.13;;;;;;;;;;10436788;28;20027;-72
2022/06/15 23:27:12;;;;;;;8.65;5.45;;;;;;;;;;10423896;28;20032;-74
2022/06/15 23:32:13;;;;;;;8.35;5.47;;;;;;;;;;10421917;28;20091;-72
2022/06/15 23:37:13;;;;;;;10.52;5.80;;;;;;;;;;10422999;28;20037;-74
2022/06/15 23:42:20;;;;;;;6.55;4.65;;;;;;;;;;10423587;28;20023;-72
2022/06/15 23:47:23;;;;;;;9.05;5.22;;;;;;;;;;10420415;28;20036;-73
2022/06/15 23:52:26;;;;;;;11.98;6.13;;;;;;;;;;10423872;28;20024;-78
2022/06/15 23:57:26;;;;;;;6.90;5.20;;;;;;;;;;10423052;28;20028;-73
